createdAt,value
2018-11-20T00:00:37.212Z,1010.94
2018-11-20T00:01:37.209Z,1010.83
2018-11-20T00:02:37.175Z,1010.86
2018-11-20T00:03:37.180Z,1010.87
2018-11-20T00:04:37.165Z,1010.85
2018-11-20T00:05:37.139Z,1010.80
2018-11-20T00:06:37.147Z,1010.89
2018-11-20T00:07:37.139Z,1010.80
2018-11-20T00:08:37.131Z,1010.78
2018-11-20T00:09:37.108Z,1010.84
2018-11-20T00:10:37.082Z,1010.77
2018-11-20T00:11:37.102Z,1010.76
2018-11-20T00:12:37.074Z,1010.69
2018-11-20T00:13:37.098Z,1010.63
2018-11-20T00:14:37.039Z,1010.65
2018-11-20T00:15:37.061Z,1010.61
2018-11-20T00:16:37.063Z,1010.57
2018-11-20T00:17:37.007Z,1010.60
2018-11-20T00:18:37.011Z,1010.51
2018-11-20T00:19:37.036Z,1010.54
2018-11-20T00:20:37.010Z,1010.52
2018-11-20T00:21:36.991Z,1010.48
2018-11-20T00:22:36.972Z,1010.45
2018-11-20T00:23:36.953Z,1010.45
2018-11-20T00:24:36.936Z,1010.39
2018-11-20T00:25:36.958Z,1010.35
2018-11-20T00:26:36.919Z,1010.37
2018-11-20T00:27:36.897Z,1010.37
2018-11-20T00:28:36.891Z,1010.38
2018-11-20T00:29:36.899Z,1010.35
2018-11-20T00:30:36.863Z,1010.34
2018-11-20T00:31:36.921Z,1010.26
2018-11-20T00:32:36.877Z,1010.38
2018-11-20T00:33:36.853Z,1010.31
2018-11-20T00:34:36.846Z,1010.37
2018-11-20T00:35:36.819Z,1010.28
2018-11-20T00:36:36.804Z,1010.37
2018-11-20T00:37:36.815Z,1010.23
2018-11-20T00:38:36.813Z,1010.26
2018-11-20T00:39:36.767Z,1010.30
2018-11-20T00:40:36.763Z,1010.29
2018-11-20T00:41:36.767Z,1010.26
2018-11-20T00:42:36.837Z,1010.18
2018-11-20T00:43:36.737Z,1010.18
2018-11-20T00:44:36.712Z,1010.29
2018-11-20T00:45:36.753Z,1010.21
2018-11-20T00:46:36.698Z,1010.26
2018-11-20T00:47:36.697Z,1010.24
2018-11-20T00:48:36.726Z,1010.19
2018-11-20T00:49:36.659Z,1010.15
2018-11-20T00:50:36.667Z,1010.10
2018-11-20T00:51:36.641Z,1010.21
2018-11-20T00:52:36.625Z,1010.10
2018-11-20T00:53:36.629Z,1010.16
2018-11-20T00:54:36.637Z,1010.23
2018-11-20T00:55:36.611Z,1010.17
2018-11-20T00:56:36.607Z,1010.23
2018-11-20T00:57:36.595Z,1010.19
2018-11-20T00:58:36.582Z,1010.19
2018-11-20T00:59:36.583Z,1010.23
2018-11-20T01:00:36.577Z,1010.17
2018-11-20T01:01:36.540Z,1010.20
2018-11-20T01:02:36.552Z,1010.21
2018-11-20T01:03:36.522Z,1010.26
2018-11-20T01:04:36.494Z,1010.16
2018-11-20T01:05:36.556Z,1010.29
2018-11-20T01:06:36.482Z,1010.23
2018-11-20T01:07:36.460Z,1010.17
2018-11-20T01:08:36.497Z,1010.10
2018-11-20T01:09:36.441Z,1010.22
2018-11-20T01:10:36.444Z,1010.10
2018-11-20T01:11:36.437Z,1010.12
2018-11-20T01:12:36.413Z,1010.02
2018-11-20T01:13:36.418Z,1010.02
2018-11-20T01:14:36.422Z,1010.04
2018-11-20T01:15:36.411Z,1010.02
2018-11-20T01:16:36.408Z,1009.95
2018-11-20T01:17:36.369Z,1010.00
2018-11-20T01:18:36.358Z,1010.05
2018-11-20T01:19:36.336Z,1009.91
2018-11-20T01:20:36.365Z,1009.97
2018-11-20T01:21:36.326Z,1009.94
2018-11-20T01:22:36.315Z,1009.87
2018-11-20T01:23:36.288Z,1009.83
2018-11-20T01:24:36.291Z,1009.89
2018-11-20T01:25:36.289Z,1009.83
2018-11-20T01:26:36.273Z,1009.79
2018-11-20T01:27:36.260Z,1009.81
2018-11-20T01:28:36.274Z,1009.78
2018-11-20T01:29:36.231Z,1009.71
2018-11-20T01:30:36.232Z,1009.71
2018-11-20T01:31:36.204Z,1009.65
2018-11-20T01:32:36.201Z,1009.63
2018-11-20T01:33:36.178Z,1009.62
2018-11-20T01:34:36.212Z,1009.67
2018-11-20T01:35:36.167Z,1009.65
2018-11-20T01:36:36.171Z,1009.60
2018-11-20T01:37:36.133Z,1009.58
2018-11-20T01:38:36.160Z,1009.58
2018-11-20T01:39:36.158Z,1009.52
2018-11-20T01:40:36.119Z,1009.53
2018-11-20T01:41:36.175Z,1009.46
2018-11-20T01:42:36.105Z,1009.47
2018-11-20T01:43:36.068Z,1009.44
2018-11-20T01:44:36.105Z,1009.48
2018-11-20T01:45:36.060Z,1009.42
2018-11-20T01:46:36.037Z,1009.39
2018-11-20T01:47:36.024Z,1009.37
2018-11-20T01:48:36.025Z,1009.39
2018-11-20T01:49:36.008Z,1009.36
2018-11-20T01:50:36.057Z,1009.34
2018-11-20T01:51:36.023Z,1009.32
2018-11-20T01:52:35.990Z,1009.33
2018-11-20T01:53:35.962Z,1009.28
2018-11-20T01:54:35.950Z,1009.22
2018-11-20T01:55:35.951Z,1009.24
2018-11-20T01:56:35.957Z,1009.21
2018-11-20T01:57:35.947Z,1009.28
2018-11-20T01:58:35.906Z,1009.12
2018-11-20T01:59:35.898Z,1009.17
2018-11-20T02:00:35.899Z,1009.19
2018-11-20T02:01:35.891Z,1009.18
2018-11-20T02:02:35.906Z,1009.10
2018-11-20T02:03:35.869Z,1009.13
2018-11-20T02:04:35.867Z,1009.10
2018-11-20T02:05:35.828Z,1008.97
2018-11-20T02:06:35.822Z,1009.06
2018-11-20T02:07:35.847Z,1008.95
2018-11-20T02:08:35.807Z,1008.91
2018-11-20T02:09:35.826Z,1008.93
2018-11-20T02:10:35.775Z,1008.89
2018-11-20T02:11:35.767Z,1008.79
2018-11-20T02:12:35.752Z,1008.82
2018-11-20T02:13:35.784Z,1008.88
2018-11-20T02:14:35.764Z,1008.84
2018-11-20T02:15:35.732Z,1008.94
2018-11-20T02:16:35.709Z,1008.90
2018-11-20T02:17:35.697Z,1008.86
2018-11-20T02:18:35.702Z,1008.91
2018-11-20T02:19:35.677Z,1008.92
2018-11-20T02:20:35.697Z,1008.89
2018-11-20T02:21:35.668Z,1008.84
2018-11-20T02:22:35.677Z,1008.85
2018-11-20T02:23:35.633Z,1008.83
2018-11-20T02:24:35.626Z,1008.74
2018-11-20T02:25:35.627Z,1008.78
2018-11-20T02:26:35.628Z,1008.77
2018-11-20T02:27:35.611Z,1008.87
2018-11-20T02:28:35.597Z,1008.70
2018-11-20T02:29:35.589Z,1008.77
2018-11-20T02:30:35.558Z,1008.70
2018-11-20T02:31:35.573Z,1008.71
2018-11-20T02:32:35.588Z,1008.70
2018-11-20T02:33:35.547Z,1008.60
2018-11-20T02:34:35.530Z,1008.72
2018-11-20T02:35:35.560Z,1008.49
2018-11-20T02:36:35.513Z,1008.31
2018-11-20T02:37:35.521Z,1008.59
2018-11-20T02:38:35.489Z,1008.42
2018-11-20T02:39:35.488Z,1008.56
2018-11-20T02:40:35.449Z,1008.56
2018-11-20T02:41:35.437Z,1008.35
2018-11-20T02:42:35.438Z,1008.51
2018-11-20T02:43:35.445Z,1008.58
2018-11-20T02:44:35.419Z,1008.55
2018-11-20T02:45:35.534Z,1008.50
2018-11-20T02:46:35.524Z,1008.34
2018-11-20T02:47:35.401Z,1008.28
2018-11-20T02:48:35.360Z,1008.47
2018-11-20T02:49:35.369Z,1008.40
2018-11-20T02:50:35.341Z,1008.34
2018-11-20T02:51:35.375Z,1008.29
2018-11-20T02:52:35.357Z,1008.29
2018-11-20T02:53:35.331Z,1008.35
2018-11-20T02:54:35.297Z,1008.30
2018-11-20T02:55:35.284Z,1008.38
2018-11-20T02:56:35.279Z,1008.36
2018-11-20T02:57:35.302Z,1008.29
2018-11-20T02:58:35.251Z,1008.21
2018-11-20T02:59:35.264Z,1008.35
2018-11-20T03:00:35.229Z,1008.42
2018-11-20T03:01:35.219Z,1008.48
2018-11-20T03:02:35.208Z,1008.44
2018-11-20T03:03:35.268Z,1008.30
2018-11-20T03:04:35.187Z,1008.36
2018-11-20T03:05:35.190Z,1008.42
2018-11-20T03:06:35.164Z,1008.28
2018-11-20T03:07:35.154Z,1008.29
2018-11-20T03:08:35.142Z,1008.20
2018-11-20T03:09:35.163Z,1008.22
2018-11-20T03:10:35.121Z,1008.16
2018-11-20T03:11:35.128Z,1008.11
2018-11-20T03:12:35.102Z,1008.15
2018-11-20T03:13:35.090Z,1008.00
2018-11-20T03:14:35.077Z,1008.11
2018-11-20T03:15:35.082Z,1008.08
2018-11-20T03:16:35.055Z,1008.09
2018-11-20T03:17:35.058Z,1008.06
2018-11-20T03:18:35.035Z,1008.08
2018-11-20T03:19:35.025Z,1008.07
2018-11-20T03:20:35.014Z,1008.10
2018-11-20T03:21:35.027Z,1008.00
2018-11-20T03:22:35.011Z,1008.02
2018-11-20T03:23:34.981Z,1008.08
2018-11-20T03:24:34.974Z,1007.98
2018-11-20T03:25:34.962Z,1008.04
2018-11-20T03:26:34.947Z,1007.98
2018-11-20T03:27:34.956Z,1007.99
2018-11-20T03:28:34.938Z,1008.00
2018-11-20T03:29:34.916Z,1007.95
2018-11-20T03:30:34.905Z,1008.02
2018-11-20T03:31:34.892Z,1007.97
2018-11-20T03:32:34.885Z,1008.08
2018-11-20T03:33:34.913Z,1007.94
2018-11-20T03:34:34.860Z,1008.04
2018-11-20T03:35:34.851Z,1008.12
2018-11-20T03:36:34.840Z,1008.10
2018-11-20T03:37:34.830Z,1007.97
2018-11-20T03:38:34.815Z,1008.03
2018-11-20T03:39:34.858Z,1008.01
2018-11-20T03:40:34.797Z,1008.06
2018-11-20T03:41:34.786Z,1008.00
2018-11-20T03:42:34.776Z,1008.09
2018-11-20T03:43:34.762Z,1008.01
2018-11-20T03:44:34.753Z,1007.98
2018-11-20T03:45:34.791Z,1008.05
2018-11-20T03:46:34.732Z,1008.02
2018-11-20T03:47:34.719Z,1008.05
2018-11-20T03:48:34.710Z,1007.96
2018-11-20T03:49:34.708Z,1008.04
2018-11-20T03:50:34.689Z,1008.00
2018-11-20T03:51:34.729Z,1008.03
2018-11-20T03:52:34.664Z,1007.90
2018-11-20T03:53:34.655Z,1007.93
2018-11-20T03:54:34.645Z,1007.76
2018-11-20T03:55:34.634Z,1007.95
2018-11-20T03:56:34.624Z,1007.84
2018-11-20T03:57:34.668Z,1007.82
2018-11-20T03:58:34.607Z,1007.91
2018-11-20T03:59:34.591Z,1007.77
2018-11-20T04:00:34.578Z,1007.78
2018-11-20T04:01:34.568Z,1007.76
2018-11-20T04:02:34.557Z,1007.86
2018-11-20T04:03:34.598Z,1007.89
2018-11-20T04:04:34.536Z,1007.93
2018-11-20T04:05:34.522Z,1007.82
2018-11-20T04:07:27.468Z,1007.90
2018-11-20T04:08:27.459Z,1007.95
2018-11-20T04:09:27.465Z,1007.92
2018-11-20T04:10:27.433Z,1007.86
2018-11-20T04:11:27.417Z,1007.91
2018-11-20T04:12:27.421Z,1007.95
2018-11-20T04:13:27.392Z,1007.89
2018-11-20T04:14:27.396Z,1007.84
2018-11-20T04:15:27.370Z,1007.88
2018-11-20T04:16:27.356Z,1007.84
2018-11-20T04:17:27.374Z,1007.86
2018-11-20T04:18:27.338Z,1007.74
2018-11-20T04:19:27.359Z,1007.79
2018-11-20T04:20:27.315Z,1007.84
2018-11-20T04:21:27.304Z,1007.77
2018-11-20T04:22:27.290Z,1007.73
2018-11-20T04:23:27.305Z,1007.71
2018-11-20T04:24:27.272Z,1007.70
2018-11-20T04:25:27.272Z,1007.70
2018-11-20T04:26:27.252Z,1007.74
2018-11-20T04:27:27.260Z,1007.73
2018-11-20T04:28:27.223Z,1007.74
2018-11-20T04:29:27.228Z,1007.72
2018-11-20T04:30:27.212Z,1007.73
2018-11-20T04:31:27.190Z,1007.70
2018-11-20T04:32:27.180Z,1007.64
2018-11-20T04:33:27.183Z,1007.77
2018-11-20T04:34:27.158Z,1007.70
2018-11-20T04:35:27.149Z,1007.74
2018-11-20T04:36:27.145Z,1007.68
2018-11-20T04:37:27.123Z,1007.65
2018-11-20T04:38:27.110Z,1007.60
2018-11-20T04:39:27.124Z,1007.65
2018-11-20T04:40:27.093Z,1007.60
2018-11-20T04:41:27.078Z,1007.64
2018-11-20T04:42:27.088Z,1007.60
2018-11-20T04:43:27.055Z,1007.60
2018-11-20T04:44:27.047Z,1007.52
2018-11-20T04:45:27.060Z,1007.57
2018-11-20T04:46:27.021Z,1007.54
2018-11-20T04:47:27.011Z,1007.47
2018-11-20T04:48:27.038Z,1007.50
2018-11-20T04:49:26.999Z,1007.44
2018-11-20T04:50:26.981Z,1007.51
2018-11-20T04:51:26.987Z,1007.47
2018-11-20T04:52:26.961Z,1007.47
2018-11-20T04:53:26.984Z,1007.39
2018-11-20T04:54:26.933Z,1007.46
2018-11-20T04:55:26.922Z,1007.52
2018-11-20T04:56:26.928Z,1007.43
2018-11-20T04:57:26.964Z,1007.37
2018-11-20T04:58:26.888Z,1007.46
2018-11-20T04:59:26.902Z,1007.31
2018-11-20T05:00:26.864Z,1007.43
2018-11-20T05:01:26.854Z,1007.33
2018-11-20T05:02:26.842Z,1007.33
2018-11-20T05:03:26.842Z,1007.32
2018-11-20T05:04:26.821Z,1007.30
2018-11-20T05:05:26.844Z,1007.30
2018-11-20T05:06:26.853Z,1007.29
2018-11-20T05:07:26.790Z,1007.22
2018-11-20T05:08:26.793Z,1007.18
2018-11-20T05:09:26.764Z,1007.23
2018-11-20T05:10:26.754Z,1007.21
2018-11-20T05:11:26.772Z,1007.25
2018-11-20T05:12:26.733Z,1007.14
2018-11-20T05:13:26.799Z,1007.16
2018-11-20T05:14:26.723Z,1007.20
2018-11-20T05:15:26.701Z,1007.13
2018-11-20T05:16:26.711Z,1007.18
2018-11-20T05:17:26.696Z,1007.17
2018-11-20T05:18:26.671Z,1007.17
2018-11-20T05:19:26.654Z,1007.15
2018-11-20T05:20:26.640Z,1007.19
2018-11-20T05:21:26.632Z,1007.15
2018-11-20T05:22:26.645Z,1007.17
2018-11-20T05:23:26.613Z,1007.16
2018-11-20T05:24:26.603Z,1007.19
2018-11-20T05:25:26.605Z,1007.15
2018-11-20T05:26:26.580Z,1007.10
2018-11-20T05:27:26.570Z,1007.28
2018-11-20T05:28:26.568Z,1007.24
2018-11-20T05:29:26.545Z,1007.16
2018-11-20T05:30:26.532Z,1007.17
2018-11-20T05:31:26.525Z,1007.11
2018-11-20T05:32:26.512Z,1007.22
2018-11-20T05:33:26.559Z,1007.15
2018-11-20T05:34:26.489Z,1007.16
2018-11-20T05:35:26.475Z,1007.20
2018-11-20T05:36:26.486Z,1007.14
2018-11-20T05:37:26.454Z,1007.15
2018-11-20T05:38:26.443Z,1007.20
2018-11-20T05:39:26.457Z,1007.15
2018-11-20T05:40:26.545Z,1007.12
2018-11-20T05:41:26.409Z,1007.15
2018-11-20T05:42:26.401Z,1007.28
2018-11-20T05:43:26.431Z,1007.27
2018-11-20T05:44:26.377Z,1007.33
2018-11-20T05:45:26.384Z,1007.40
2018-11-20T05:46:26.352Z,1007.27
2018-11-20T05:47:26.358Z,1007.28
2018-11-20T05:48:26.329Z,1007.27
2018-11-20T05:49:26.324Z,1007.29
2018-11-20T05:50:26.323Z,1007.16
2018-11-20T05:51:26.298Z,1007.26
2018-11-20T05:52:26.292Z,1007.19
2018-11-20T05:53:26.282Z,1007.14
2018-11-20T05:54:26.265Z,1007.16
2018-11-20T05:55:26.263Z,1007.18
2018-11-20T05:56:26.260Z,1007.16
2018-11-20T05:57:26.231Z,1007.13
2018-11-20T05:58:26.219Z,1007.22
2018-11-20T05:59:26.218Z,1007.18
2018-11-20T06:00:26.197Z,1007.23
2018-11-20T06:01:26.204Z,1007.05
2018-11-20T06:02:26.183Z,1007.07
2018-11-20T06:03:26.160Z,1007.10
2018-11-20T06:04:26.158Z,1007.10
2018-11-20T06:05:26.160Z,1007.10
2018-11-20T06:06:26.134Z,1006.93
2018-11-20T06:07:26.134Z,1006.93
2018-11-20T06:08:26.107Z,1006.97
2018-11-20T06:09:26.097Z,1007.00
2018-11-20T06:10:26.084Z,1007.05
2018-11-20T06:11:26.074Z,1007.12
2018-11-20T06:12:26.116Z,1006.99
2018-11-20T06:13:26.066Z,1007.05
2018-11-20T06:14:26.040Z,1007.00
2018-11-20T06:15:26.034Z,1006.95
2018-11-20T06:16:26.020Z,1006.84
2018-11-20T06:17:26.007Z,1006.73
2018-11-20T06:18:26.038Z,1006.98
2018-11-20T06:19:25.982Z,1006.92
2018-11-20T06:20:25.975Z,1006.98
2018-11-20T06:21:25.961Z,1006.87
2018-11-20T06:22:25.949Z,1006.99
2018-11-20T06:23:25.955Z,1006.92
2018-11-20T06:24:25.948Z,1007.00
2018-11-20T06:25:25.918Z,1006.95
2018-11-20T06:26:25.906Z,1006.90
2018-11-20T06:27:25.895Z,1006.96
2018-11-20T06:28:25.888Z,1006.92
2018-11-20T06:29:25.931Z,1006.92
2018-11-20T06:30:25.864Z,1006.99
2018-11-20T06:31:25.850Z,1006.89
2018-11-20T06:32:25.836Z,1006.91
2018-11-20T06:33:25.829Z,1006.90
2018-11-20T06:34:25.896Z,1006.94
2018-11-20T06:35:25.823Z,1006.92
2018-11-20T06:36:25.816Z,1006.87
2018-11-20T06:37:25.783Z,1006.80
2018-11-20T06:38:25.798Z,1006.84
2018-11-20T06:39:25.761Z,1006.73
2018-11-20T06:40:25.750Z,1006.85
2018-11-20T06:41:25.839Z,1006.86
2018-11-20T06:42:25.729Z,1006.83
2018-11-20T06:43:25.728Z,1006.84
2018-11-20T06:44:25.709Z,1006.88
2018-11-20T06:45:25.692Z,1006.78
2018-11-20T06:46:25.684Z,1006.82
2018-11-20T06:47:25.792Z,1006.72
2018-11-20T06:48:25.665Z,1006.87
2018-11-20T06:49:25.664Z,1006.77
2018-11-20T06:50:25.637Z,1006.82
2018-11-20T06:51:25.649Z,1006.84
2018-11-20T06:52:25.617Z,1006.81
2018-11-20T06:53:25.728Z,1006.81
2018-11-20T06:54:25.596Z,1006.73
2018-11-20T06:55:25.585Z,1006.73
2018-11-20T06:56:25.578Z,1006.71
2018-11-20T06:57:25.661Z,1006.65
2018-11-20T06:58:25.564Z,1006.71
2018-11-20T06:59:25.594Z,1006.55
2018-11-20T07:00:25.530Z,1006.64
2018-11-20T07:01:25.561Z,1006.56
2018-11-20T07:02:25.510Z,1006.69
2018-11-20T07:03:25.495Z,1006.61
2018-11-20T07:04:25.484Z,1006.56
2018-11-20T07:05:25.490Z,1006.62
2018-11-20T07:06:25.475Z,1006.43
2018-11-20T07:07:25.669Z,1006.55
2018-11-20T07:08:25.510Z,1006.55
2018-11-20T07:09:25.461Z,1006.47
2018-11-20T07:10:25.417Z,1006.63
2018-11-20T07:11:25.420Z,1006.60
2018-11-20T07:12:25.393Z,1006.58
2018-11-20T07:13:25.389Z,1006.57
2018-11-20T07:14:25.373Z,1006.62
2018-11-20T07:15:25.515Z,1006.67
2018-11-20T07:16:25.420Z,1006.52
2018-11-20T07:17:25.337Z,1006.51
2018-11-20T07:18:25.332Z,1006.57
2018-11-20T07:19:25.316Z,1006.45
2018-11-20T07:20:25.310Z,1006.52
2018-11-20T07:21:25.323Z,1006.69
2018-11-20T07:22:25.348Z,1006.52
2018-11-20T07:23:25.270Z,1006.51
2018-11-20T07:24:25.327Z,1006.53
2018-11-20T07:25:25.251Z,1006.62
2018-11-20T07:26:25.271Z,1006.51
2018-11-20T07:27:25.233Z,1006.60
2018-11-20T07:28:25.250Z,1006.57
2018-11-20T07:29:25.268Z,1006.68
2018-11-20T07:30:25.263Z,1006.52
2018-11-20T07:31:25.206Z,1006.68
2018-11-20T07:32:25.171Z,1006.52
2018-11-20T07:33:25.183Z,1006.70
2018-11-20T07:34:25.165Z,1006.57
2018-11-20T07:35:25.140Z,1006.64
2018-11-20T07:36:25.264Z,1006.62
2018-11-20T07:37:25.365Z,1006.69
2018-11-20T07:38:25.117Z,1006.59
2018-11-20T07:39:25.110Z,1006.69
2018-11-20T07:40:25.119Z,1006.70
2018-11-20T07:41:25.074Z,1006.72
2018-11-20T07:42:25.059Z,1006.82
2018-11-20T07:43:25.185Z,1006.73
2018-11-20T07:44:25.097Z,1006.78
2018-11-20T07:45:25.066Z,1006.76
2018-11-20T07:46:25.027Z,1006.61
2018-11-20T07:47:25.006Z,1006.77
2018-11-20T07:48:24.994Z,1006.63
2018-11-20T07:49:24.981Z,1006.63
2018-11-20T07:50:24.980Z,1006.67
2018-11-20T07:51:24.981Z,1006.57
2018-11-20T07:52:24.983Z,1006.67
2018-11-20T07:53:24.941Z,1006.55
2018-11-20T07:54:24.929Z,1006.66
2018-11-20T07:55:24.926Z,1006.57
2018-11-20T07:56:24.934Z,1006.53
2018-11-20T07:57:24.892Z,1006.40
2018-11-20T07:58:24.906Z,1006.63
2018-11-20T07:59:24.870Z,1006.58
2018-11-20T08:00:24.863Z,1006.64
2018-11-20T08:01:24.846Z,1006.61
2018-11-20T08:02:24.900Z,1006.62
2018-11-20T08:03:24.824Z,1006.67
2018-11-20T08:04:24.837Z,1006.60
2018-11-20T08:05:24.802Z,1006.53
2018-11-20T08:06:24.792Z,1006.61
2018-11-20T08:07:24.783Z,1006.60
2018-11-20T08:08:24.831Z,1006.59
2018-11-20T08:09:24.758Z,1006.58
2018-11-20T08:10:24.744Z,1006.59
2018-11-20T08:11:24.752Z,1006.62
2018-11-20T08:12:24.723Z,1006.59
2018-11-20T08:13:24.717Z,1006.55
2018-11-20T08:14:24.720Z,1006.57
2018-11-20T08:15:24.755Z,1006.57
2018-11-20T08:16:24.677Z,1006.54
2018-11-20T08:17:24.669Z,1006.56
2018-11-20T08:18:24.692Z,1006.44
2018-11-20T08:19:24.646Z,1006.57
2018-11-20T08:20:24.648Z,1006.56
2018-11-20T08:21:24.628Z,1006.56
2018-11-20T08:22:24.614Z,1006.62
2018-11-20T08:23:24.644Z,1006.54
2018-11-20T08:24:24.608Z,1006.55
2018-11-20T08:25:24.713Z,1006.56
2018-11-20T08:26:24.799Z,1006.55
2018-11-20T08:27:24.562Z,1006.57
2018-11-20T08:28:24.547Z,1006.57
2018-11-20T08:29:24.535Z,1006.58
2018-11-20T08:30:24.543Z,1006.53
2018-11-20T08:31:24.534Z,1006.61
2018-11-20T08:32:24.502Z,1006.52
2018-11-20T08:33:24.495Z,1006.43
2018-11-20T08:34:24.576Z,1006.55
2018-11-20T08:35:24.563Z,1006.54
2018-11-20T08:36:24.457Z,1006.50
2018-11-20T08:37:24.495Z,1006.49
2018-11-20T08:38:24.435Z,1006.37
2018-11-20T08:39:24.425Z,1006.51
2018-11-20T08:40:24.427Z,1006.59
2018-11-20T08:41:24.398Z,1006.46
2018-11-20T08:42:24.446Z,1006.36
2018-11-20T08:43:24.419Z,1006.42
2018-11-20T08:44:24.373Z,1006.41
2018-11-20T08:45:24.356Z,1006.52
2018-11-20T08:46:24.374Z,1006.56
2018-11-20T08:47:24.331Z,1006.49
2018-11-20T08:48:24.415Z,1006.56
2018-11-20T08:49:24.324Z,1006.53
2018-11-20T08:50:24.301Z,1006.39
2018-11-20T08:51:24.292Z,1006.56
2018-11-20T08:52:24.290Z,1006.49
2018-11-20T08:53:24.273Z,1006.55
2018-11-20T08:54:24.259Z,1006.50
2018-11-20T08:55:24.264Z,1006.57
2018-11-20T08:56:24.233Z,1006.60
2018-11-20T08:57:24.238Z,1006.52
2018-11-20T08:58:24.217Z,1006.59
2018-11-20T08:59:24.202Z,1006.54
2018-11-20T09:00:24.186Z,1006.45
2018-11-20T09:01:24.199Z,1006.56
2018-11-20T09:02:24.279Z,1006.57
2018-11-20T09:03:24.330Z,1006.60
2018-11-20T09:04:24.146Z,1006.60
2018-11-20T09:05:24.130Z,1006.61
2018-11-20T09:06:24.123Z,1006.61
2018-11-20T09:07:24.116Z,1006.66
2018-11-20T09:08:24.154Z,1006.70
2018-11-20T09:09:24.091Z,1006.53
2018-11-20T09:10:24.133Z,1006.68
2018-11-20T09:11:24.069Z,1006.66
2018-11-20T09:12:24.080Z,1006.73
2018-11-20T09:13:24.047Z,1006.72
2018-11-20T09:14:24.061Z,1006.62
2018-11-20T09:15:24.028Z,1006.67
2018-11-20T09:16:24.008Z,1006.57
2018-11-20T09:17:24.005Z,1006.70
2018-11-20T09:18:23.987Z,1006.68
2018-11-20T09:19:23.978Z,1006.66
2018-11-20T09:20:24.077Z,1006.64
2018-11-20T09:21:24.105Z,1006.66
2018-11-20T09:22:23.947Z,1006.67
2018-11-20T09:23:23.934Z,1006.59
2018-11-20T09:24:23.924Z,1006.73
2018-11-20T09:25:23.949Z,1006.68
2018-11-20T09:26:23.925Z,1006.59
2018-11-20T09:27:23.909Z,1006.64
2018-11-20T09:28:23.876Z,1006.59
2018-11-20T09:29:23.863Z,1006.65
2018-11-20T09:30:23.854Z,1006.66
2018-11-20T09:31:23.846Z,1006.62
2018-11-20T09:32:23.849Z,1006.69
2018-11-20T09:33:23.857Z,1006.77
2018-11-20T09:34:23.854Z,1006.70
2018-11-20T09:35:23.929Z,1006.75
2018-11-20T09:36:23.786Z,1006.69
2018-11-20T09:37:23.771Z,1006.71
2018-11-20T09:38:23.778Z,1006.73
2018-11-20T09:39:23.788Z,1006.76
2018-11-20T09:40:23.741Z,1006.68
2018-11-20T09:41:23.729Z,1006.70
2018-11-20T09:42:23.720Z,1006.65
2018-11-20T09:43:23.725Z,1006.54
2018-11-20T09:44:23.708Z,1006.69
2018-11-20T09:45:23.727Z,1006.69
2018-11-20T09:46:23.718Z,1006.67
2018-11-20T09:47:23.660Z,1006.77
2018-11-20T09:48:23.654Z,1006.62
2018-11-20T09:49:23.661Z,1006.59
2018-11-20T09:50:23.646Z,1006.56
2018-11-20T09:51:23.636Z,1006.62
2018-11-20T09:52:23.610Z,1006.55
2018-11-20T09:53:23.599Z,1006.51
2018-11-20T09:54:23.678Z,1006.42
2018-11-20T09:55:23.573Z,1006.53
2018-11-20T09:56:23.587Z,1006.58
2018-11-20T09:57:23.555Z,1006.53
2018-11-20T09:58:23.567Z,1006.52
2018-11-20T09:59:23.622Z,1006.47
2018-11-20T10:00:23.522Z,1006.52
2018-11-20T10:01:23.513Z,1006.51
2018-11-20T10:02:23.518Z,1006.49
2018-11-20T10:03:23.482Z,1006.50
2018-11-20T10:04:23.476Z,1006.47
2018-11-20T10:05:23.507Z,1006.51
2018-11-20T10:06:23.450Z,1006.51
2018-11-20T10:07:23.438Z,1006.54
2018-11-20T10:08:23.441Z,1006.50
2018-11-20T10:09:23.422Z,1006.49
2018-11-20T10:10:23.405Z,1006.51
2018-11-20T10:11:23.409Z,1006.43
2018-11-20T10:12:23.383Z,1006.48
2018-11-20T10:13:23.397Z,1006.47
2018-11-20T10:14:23.511Z,1006.48
2018-11-20T10:15:23.348Z,1006.41
2018-11-20T10:16:23.335Z,1006.41
2018-11-20T10:17:23.340Z,1006.41
2018-11-20T10:18:23.332Z,1006.43
2018-11-20T10:19:23.319Z,1006.38
2018-11-20T10:20:23.292Z,1006.30
2018-11-20T10:21:23.307Z,1006.26
2018-11-20T10:22:23.271Z,1006.27
2018-11-20T10:23:23.319Z,1006.27
2018-11-20T10:24:23.246Z,1006.27
2018-11-20T10:25:23.361Z,1006.28
2018-11-20T10:26:23.273Z,1006.24
2018-11-20T10:27:23.212Z,1006.13
2018-11-20T10:28:23.204Z,1006.26
2018-11-20T10:29:23.219Z,1006.20
2018-11-20T10:30:23.179Z,1006.16
2018-11-20T10:31:23.183Z,1006.10
2018-11-20T10:32:23.202Z,1006.02
2018-11-20T10:33:23.148Z,1005.99
2018-11-20T10:34:23.144Z,1006.02
2018-11-20T10:35:23.136Z,1005.91
2018-11-20T10:36:23.116Z,1005.91
2018-11-20T10:37:23.123Z,1005.94
2018-11-20T10:38:23.091Z,1005.98
2018-11-20T10:39:23.095Z,1005.80
2018-11-20T10:40:23.129Z,1005.88
2018-11-20T10:41:23.057Z,1005.88
2018-11-20T10:42:23.045Z,1005.97
2018-11-20T10:43:23.052Z,1005.84
2018-11-20T10:44:23.029Z,1005.89
2018-11-20T10:45:23.074Z,1005.90
2018-11-20T10:46:23.031Z,1005.93
2018-11-20T10:47:22.988Z,1005.97
2018-11-20T10:48:23.001Z,1005.91
2018-11-20T10:49:22.965Z,1005.84
2018-11-20T10:50:22.959Z,1005.86
2018-11-20T10:51:22.956Z,1005.71
2018-11-20T10:52:22.952Z,1005.74
2018-11-20T10:53:22.927Z,1005.85
2018-11-20T10:54:22.927Z,1005.80
2018-11-20T10:55:22.905Z,1005.80
2018-11-20T10:56:22.912Z,1005.80
2018-11-20T10:57:22.882Z,1005.74
2018-11-20T10:58:22.869Z,1005.70
2018-11-20T10:59:22.908Z,1005.69
2018-11-20T11:00:22.859Z,1005.70
2018-11-20T11:01:22.838Z,1005.72
2018-11-20T11:02:22.843Z,1005.56
2018-11-20T11:03:22.809Z,1005.60
2018-11-20T11:04:22.873Z,1005.54
2018-11-20T11:05:22.803Z,1005.51
2018-11-20T11:06:22.948Z,1005.47
2018-11-20T11:07:22.797Z,1005.55
2018-11-20T11:08:22.780Z,1005.47
2018-11-20T11:09:22.745Z,1005.43
2018-11-20T11:10:22.732Z,1005.42
2018-11-20T11:11:22.758Z,1005.45
2018-11-20T11:12:22.710Z,1005.49
2018-11-20T11:13:22.704Z,1005.50
2018-11-20T11:14:22.732Z,1005.50
2018-11-20T11:15:22.682Z,1005.48
2018-11-20T11:16:22.670Z,1005.50
2018-11-20T11:17:22.660Z,1005.65
2018-11-20T11:18:22.729Z,1005.45
2018-11-20T11:19:22.633Z,1005.46
2018-11-20T11:20:22.727Z,1005.35
2018-11-20T11:21:22.614Z,1005.40
2018-11-20T11:22:22.625Z,1005.36
2018-11-20T11:23:22.614Z,1005.18
2018-11-20T11:24:22.581Z,1005.39
2018-11-20T11:25:22.571Z,1005.33
2018-11-20T11:26:22.570Z,1005.34
2018-11-20T11:27:22.550Z,1005.29
2018-11-20T11:28:22.538Z,1005.35
2018-11-20T11:29:22.523Z,1005.43
2018-11-20T11:30:22.512Z,1005.41
2018-11-20T11:31:22.501Z,1005.36
2018-11-20T11:32:22.509Z,1005.35
2018-11-20T11:33:26.783Z,1005.22
2018-11-20T11:34:22.465Z,1005.36
2018-11-20T11:35:22.458Z,1005.36
2018-11-20T11:36:22.443Z,1005.29
2018-11-20T11:37:22.436Z,1005.19
2018-11-20T11:38:22.910Z,1005.27
2018-11-20T11:39:22.408Z,1005.24
2018-11-20T11:40:22.399Z,1005.19
2018-11-20T11:41:22.388Z,1005.16
2018-11-20T11:42:22.376Z,1005.18
2018-11-20T11:43:22.406Z,1005.14
2018-11-20T11:44:22.370Z,1005.24
2018-11-20T11:45:22.343Z,1005.14
2018-11-20T11:46:22.333Z,1005.22
2018-11-20T11:47:22.325Z,1005.19
2018-11-20T11:48:22.308Z,1005.13
2018-11-20T11:49:22.322Z,1005.15
2018-11-20T11:50:22.290Z,1005.10
2018-11-20T11:51:25.479Z,1005.01
2018-11-20T11:52:25.333Z,1005.13
2018-11-20T11:53:22.254Z,1005.12
2018-11-20T11:54:22.246Z,1005.12
2018-11-20T11:55:22.257Z,1005.10
2018-11-20T11:56:22.226Z,1005.13
2018-11-20T11:57:22.222Z,1005.17
2018-11-20T11:58:22.202Z,1005.18
2018-11-20T11:59:22.187Z,1005.14
2018-11-20T12:00:22.197Z,1005.17
2018-11-20T12:01:22.168Z,1005.09
2018-11-20T12:03:30.593Z,1005.22
2018-11-20T12:04:30.579Z,1005.08
2018-11-20T12:05:30.586Z,1005.05
2018-11-20T12:06:30.553Z,1005.16
2018-11-20T12:07:30.567Z,1005.14